createdAt,value
2018-12-30T00:02:19.878Z,96.80
2018-12-30T00:04:56.219Z,96.70
2018-12-30T00:07:29.634Z,96.80
2018-12-30T00:09:58.843Z,97.10
2018-12-30T00:12:25.603Z,97.00
2018-12-30T00:15:01.778Z,97.00
2018-12-30T00:17:28.052Z,97.00
2018-12-30T00:19:58.044Z,96.80
2018-12-30T00:22:30.575Z,96.80
2018-12-30T00:25:02.818Z,96.70
2018-12-30T00:27:29.855Z,96.60
2018-12-30T00:29:56.269Z,96.80
2018-12-30T00:32:23.037Z,97.00
2018-12-30T00:34:49.406Z,96.70
2018-12-30T00:37:15.789Z,96.60
2018-12-30T00:39:42.243Z,96.50
2018-12-30T00:42:08.692Z,96.40
2018-12-30T00:44:35.009Z,96.40
2018-12-30T00:47:01.300Z,96.40
2018-12-30T00:49:27.871Z,96.50
2018-12-30T00:51:54.246Z,96.30
2018-12-30T00:54:20.709Z,96.30
2018-12-30T00:56:47.096Z,96.30
2018-12-30T00:59:13.436Z,96.30
2018-12-30T01:01:39.696Z,96.50
2018-12-30T01:04:06.083Z,96.40
2018-12-30T01:06:32.576Z,96.40
2018-12-30T01:08:58.984Z,96.30
2018-12-30T01:11:25.361Z,96.30
2018-12-30T01:13:51.598Z,96.30
2018-12-30T01:16:17.993Z,96.30
2018-12-30T01:18:44.375Z,96.50
2018-12-30T01:21:10.790Z,96.30
2018-12-30T01:23:37.239Z,96.50
2018-12-30T01:26:03.778Z,96.50
2018-12-30T01:28:30.082Z,96.60
2018-12-30T01:30:56.317Z,96.60
2018-12-30T01:33:22.724Z,96.60
2018-12-30T01:35:49.050Z,96.50
2018-12-30T01:38:15.324Z,96.70
2018-12-30T01:40:41.757Z,96.50
2018-12-30T01:43:07.991Z,96.50
2018-12-30T01:45:34.341Z,96.50
2018-12-30T01:48:00.645Z,96.60
2018-12-30T01:50:26.908Z,96.70
2018-12-30T01:52:53.183Z,97.00
2018-12-30T01:55:19.683Z,96.90
2018-12-30T01:57:45.922Z,97.00
2018-12-30T02:00:12.421Z,97.00
2018-12-30T02:02:38.676Z,97.00
2018-12-30T02:05:05.166Z,97.00
2018-12-30T02:07:31.521Z,96.90
2018-12-30T02:09:57.995Z,96.70
2018-12-30T02:12:24.264Z,97.10
2018-12-30T02:14:50.532Z,96.70
2018-12-30T02:17:17.002Z,96.60
2018-12-30T02:19:43.487Z,96.50
2018-12-30T02:22:11.783Z,96.40
2018-12-30T02:24:38.053Z,96.30
2018-12-30T02:27:04.432Z,96.30
2018-12-30T02:29:30.947Z,96.20
2018-12-30T02:31:57.379Z,96.10
2018-12-30T02:34:23.768Z,95.90
2018-12-30T02:36:50.122Z,95.60
2018-12-30T02:39:16.396Z,95.50
2018-12-30T02:41:42.746Z,95.40
2018-12-30T02:44:10.846Z,95.30
2018-12-30T02:46:39.775Z,95.30
2018-12-30T02:49:06.054Z,95.30
2018-12-30T02:51:32.407Z,95.20
2018-12-30T02:53:58.636Z,95.20
2018-12-30T02:56:25.001Z,95.10
2018-12-30T02:58:51.317Z,95.20
2018-12-30T03:01:17.727Z,95.10
2018-12-30T03:03:44.086Z,95.10
2018-12-30T03:06:10.363Z,95.10
2018-12-30T03:08:36.766Z,95.00
2018-12-30T03:11:03.224Z,95.00
2018-12-30T03:13:29.469Z,95.00
2018-12-30T03:15:55.758Z,95.00
2018-12-30T03:18:22.036Z,95.00
2018-12-30T03:20:48.413Z,95.10
2018-12-30T03:23:14.884Z,95.10
2018-12-30T03:25:41.152Z,95.10
2018-12-30T03:28:07.520Z,95.10
2018-12-30T03:30:33.773Z,95.10
2018-12-30T03:33:00.063Z,95.10
2018-12-30T03:35:26.301Z,95.00
2018-12-30T03:37:52.594Z,94.90
2018-12-30T03:40:18.863Z,95.00
2018-12-30T03:42:45.251Z,95.00
2018-12-30T03:45:11.507Z,94.90
2018-12-30T03:47:38.244Z,95.00
2018-12-30T03:50:04.731Z,95.00
2018-12-30T03:52:31.246Z,95.10
2018-12-30T03:54:57.600Z,95.10
2018-12-30T03:57:23.845Z,95.10
2018-12-30T03:59:50.253Z,95.30
2018-12-30T04:02:16.673Z,95.30
2018-12-30T04:04:43.060Z,95.60
2018-12-30T04:07:09.501Z,95.30
2018-12-30T04:09:35.808Z,95.30
2018-12-30T04:12:02.162Z,95.30
2018-12-30T04:14:28.410Z,95.20
2018-12-30T04:16:54.734Z,95.20
2018-12-30T04:19:21.111Z,95.10
2018-12-30T04:21:47.494Z,95.00
2018-12-30T04:24:34.792Z,95.00
2018-12-30T04:27:01.067Z,94.90
2018-12-30T04:29:27.538Z,95.20
2018-12-30T04:31:53.861Z,94.90
2018-12-30T04:34:20.112Z,94.90
2018-12-30T04:36:46.393Z,94.80
2018-12-30T04:39:12.757Z,94.70
2018-12-30T04:41:39.029Z,94.60
2018-12-30T04:44:05.484Z,94.70
2018-12-30T04:46:31.858Z,94.50
2018-12-30T04:48:58.241Z,94.50
2018-12-30T04:51:24.621Z,94.50
2018-12-30T04:53:50.985Z,94.50
2018-12-30T04:56:17.366Z,94.80
2018-12-30T04:58:43.681Z,94.50
2018-12-30T05:01:10.064Z,94.40
2018-12-30T05:03:36.392Z,94.40
2018-12-30T05:06:02.762Z,94.40
2018-12-30T05:08:29.169Z,94.30
2018-12-30T05:10:55.639Z,94.30
2018-12-30T05:13:21.889Z,94.20
2018-12-30T05:15:48.274Z,94.10
2018-12-30T05:18:14.713Z,94.10
2018-12-30T05:20:41.007Z,93.90
2018-12-30T05:23:07.275Z,93.90
2018-12-30T05:25:33.689Z,93.80
2018-12-30T05:28:00.196Z,93.70
2018-12-30T05:30:26.565Z,93.60
2018-12-30T05:32:53.018Z,93.50
2018-12-30T05:35:19.348Z,93.80
2018-12-30T05:37:45.650Z,93.60
2018-12-30T05:40:11.958Z,93.60
2018-12-30T05:42:38.225Z,93.60
2018-12-30T05:45:06.308Z,93.60
2018-12-30T05:47:32.573Z,93.50
2018-12-30T05:49:58.904Z,93.60
2018-12-30T05:52:26.086Z,93.60
2018-12-30T05:54:52.352Z,93.60
2018-12-30T05:57:18.789Z,93.60
2018-12-30T05:59:45.158Z,93.50
2018-12-30T06:02:11.427Z,93.50
2018-12-30T06:04:37.827Z,93.50
2018-12-30T06:07:04.193Z,93.50
2018-12-30T06:09:30.468Z,93.50
2018-12-30T06:11:56.751Z,93.30
2018-12-30T06:14:23.143Z,93.40
2018-12-30T06:16:49.456Z,93.40
2018-12-30T06:19:15.713Z,93.50
2018-12-30T06:21:42.014Z,93.50
2018-12-30T06:24:08.369Z,93.40
2018-12-30T06:26:34.625Z,93.40
2018-12-30T06:29:00.892Z,93.40
2018-12-30T06:31:27.283Z,93.30
2018-12-30T06:33:53.634Z,93.30
2018-12-30T06:36:19.912Z,93.30
2018-12-30T06:38:46.317Z,93.30
2018-12-30T06:41:12.568Z,93.20
2018-12-30T06:43:39.012Z,93.20
2018-12-30T06:46:05.253Z,93.10
2018-12-30T06:48:31.513Z,93.40
2018-12-30T06:50:57.886Z,93.20
2018-12-30T06:53:24.152Z,93.20
2018-12-30T06:55:50.441Z,93.20
2018-12-30T06:58:16.776Z,93.20
2018-12-30T07:00:43.114Z,93.20
2018-12-30T07:03:09.364Z,93.20
2018-12-30T07:05:35.704Z,93.30
2018-12-30T07:08:01.999Z,93.30
2018-12-30T07:10:28.247Z,93.40
2018-12-30T07:12:54.522Z,93.30
2018-12-30T07:15:20.813Z,93.30
2018-12-30T07:17:47.090Z,93.30
2018-12-30T07:20:13.540Z,93.40
2018-12-30T07:22:39.969Z,93.40
2018-12-30T07:25:06.456Z,93.40
2018-12-30T07:27:32.757Z,93.40
2018-12-30T07:29:59.005Z,93.50
2018-12-30T07:32:25.382Z,93.60
2018-12-30T07:34:54.141Z,93.60
2018-12-30T07:37:20.250Z,93.70
2018-12-30T07:40:02.720Z,93.70
2018-12-30T07:42:29.630Z,93.70
2018-12-30T07:45:09.592Z,93.60
2018-12-30T07:47:36.098Z,93.70
2018-12-30T07:50:04.050Z,93.60
2018-12-30T07:52:30.562Z,93.70
2018-12-30T07:54:56.837Z,93.70
2018-12-30T07:57:23.361Z,93.60
2018-12-30T07:59:49.662Z,93.70
2018-12-30T08:02:15.967Z,93.70
2018-12-30T08:04:42.251Z,93.70
2018-12-30T08:07:08.496Z,93.70
2018-12-30T08:09:34.882Z,93.70
2018-12-30T08:12:01.326Z,93.70
2018-12-30T08:14:27.986Z,93.80
2018-12-30T08:16:54.380Z,93.70
2018-12-30T08:19:20.632Z,93.70
2018-12-30T08:21:47.027Z,93.70
2018-12-30T08:24:13.294Z,93.60
2018-12-30T08:26:39.567Z,93.80
2018-12-30T08:29:08.244Z,93.60
2018-12-30T08:31:34.548Z,93.80
2018-12-30T08:34:00.821Z,93.70
2018-12-30T08:36:27.101Z,93.60
2018-12-30T08:38:53.445Z,93.60
2018-12-30T08:41:19.760Z,93.50
2018-12-30T08:43:46.026Z,93.40
2018-12-30T08:46:12.328Z,93.50
2018-12-30T08:48:38.713Z,93.50
2018-12-30T08:51:05.010Z,93.40
2018-12-30T08:53:31.399Z,93.40
2018-12-30T08:55:57.749Z,93.40
2018-12-30T08:58:24.211Z,93.30
2018-12-30T09:00:50.581Z,93.30
2018-12-30T09:03:16.824Z,93.30
2018-12-30T09:05:43.056Z,93.10
2018-12-30T09:08:09.361Z,93.20
2018-12-30T09:10:35.616Z,93.10
2018-12-30T09:13:02.209Z,92.80
2018-12-30T09:15:28.600Z,92.90
2018-12-30T09:17:55.309Z,92.70
2018-12-30T09:20:21.530Z,92.60
2018-12-30T09:22:47.803Z,92.50
2018-12-30T09:25:14.066Z,92.60
2018-12-30T09:27:40.449Z,92.50
2018-12-30T09:30:18.633Z,92.40
2018-12-30T09:32:56.107Z,92.50
2018-12-30T09:35:22.527Z,92.60
2018-12-30T09:37:48.925Z,92.60
2018-12-30T09:40:15.358Z,92.70
2018-12-30T09:42:41.757Z,92.80
2018-12-30T09:45:08.370Z,92.60
2018-12-30T09:47:34.893Z,92.50
2018-12-30T09:50:01.348Z,92.60
2018-12-30T09:52:27.977Z,92.70
2018-12-30T09:54:54.561Z,92.40
2018-12-30T09:57:20.797Z,92.30
2018-12-30T09:59:47.137Z,92.50
2018-12-30T10:02:13.599Z,92.50
2018-12-30T10:04:39.870Z,92.60
2018-12-30T10:07:06.366Z,92.60
2018-12-30T10:09:32.632Z,92.50
2018-12-30T10:11:59.010Z,92.50
2018-12-30T10:14:25.279Z,92.70
2018-12-30T10:16:51.930Z,92.50
2018-12-30T10:19:20.346Z,92.10
2018-12-30T10:21:49.277Z,92.20
2018-12-30T10:24:15.696Z,92.30
2018-12-30T10:26:43.020Z,92.20
2018-12-30T10:29:14.875Z,91.90
2018-12-30T10:31:41.175Z,92.10
2018-12-30T10:34:07.452Z,92.00
2018-12-30T10:36:33.853Z,91.90
2018-12-30T10:39:00.101Z,91.60
2018-12-30T10:41:26.385Z,91.60
2018-12-30T10:43:52.759Z,91.60
2018-12-30T10:46:20.042Z,91.40
2018-12-30T10:48:46.602Z,91.60
2018-12-30T10:51:13.160Z,91.40
2018-12-30T10:53:41.745Z,91.80
2018-12-30T10:56:09.316Z,91.70
2018-12-30T10:58:36.087Z,91.40
2018-12-30T11:01:02.568Z,91.30
2018-12-30T11:03:28.886Z,91.60
2018-12-30T11:05:55.313Z,91.40
2018-12-30T11:08:21.979Z,91.30
2018-12-30T11:10:48.496Z,91.00
2018-12-30T11:13:14.883Z,90.90
2018-12-30T11:15:45.184Z,90.50
2018-12-30T11:18:11.585Z,90.30
2018-12-30T11:20:37.966Z,90.00
2018-12-30T11:23:04.352Z,90.20
2018-12-30T11:25:30.664Z,90.20
2018-12-30T11:27:56.928Z,90.70
2018-12-30T11:30:23.660Z,90.40
2018-12-30T11:32:50.023Z,90.50
2018-12-30T11:35:16.292Z,90.70
2018-12-30T11:37:42.566Z,90.20
2018-12-30T11:40:09.079Z,90.20
2018-12-30T11:42:35.366Z,90.30
2018-12-30T11:45:01.869Z,90.10
2018-12-30T11:47:28.235Z,90.20
2018-12-30T11:49:54.764Z,90.30
2018-12-30T11:52:21.105Z,90.60
2018-12-30T11:54:47.597Z,90.20
2018-12-30T11:57:14.016Z,90.60
2018-12-30T11:59:40.423Z,90.50
2018-12-30T12:02:06.828Z,90.40
2018-12-30T12:04:33.093Z,90.50
2018-12-30T12:06:59.459Z,90.80
2018-12-30T12:09:25.825Z,90.90
2018-12-30T12:11:52.107Z,90.70
2018-12-30T12:14:18.544Z,90.40
2018-12-30T12:16:44.951Z,90.40
2018-12-30T12:19:11.511Z,90.50
2018-12-30T12:21:37.913Z,90.60
2018-12-30T12:24:04.822Z,90.60
2018-12-30T12:26:31.490Z,90.20
2018-12-30T12:28:57.855Z,90.30
2018-12-30T12:31:24.115Z,90.40
2018-12-30T12:33:50.397Z,90.40
2018-12-30T12:36:16.756Z,90.60
2018-12-30T12:38:43.110Z,90.60
2018-12-30T12:41:09.453Z,90.70
2018-12-30T12:43:35.745Z,90.90
2018-12-30T12:46:02.283Z,90.80
2018-12-30T12:48:28.514Z,90.90
2018-12-30T12:50:54.795Z,91.00
2018-12-30T12:53:21.400Z,90.90
2018-12-30T12:55:47.879Z,91.00
2018-12-30T12:58:14.296Z,91.10
2018-12-30T13:00:40.836Z,91.20
2018-12-30T13:03:07.211Z,91.20
2018-12-30T13:05:33.475Z,91.30
2018-12-30T13:07:59.752Z,91.20
2018-12-30T13:10:26.130Z,91.30
2018-12-30T13:12:52.386Z,91.10
2018-12-30T13:15:18.889Z,91.20
2018-12-30T13:17:45.280Z,91.30
2018-12-30T13:20:11.838Z,91.30
2018-12-30T13:22:38.313Z,91.30
2018-12-30T13:25:04.819Z,91.40
2018-12-30T13:27:31.259Z,91.30
2018-12-30T13:29:57.530Z,91.40
2018-12-30T13:32:23.918Z,91.40
2018-12-30T13:34:50.178Z,91.40
2018-12-30T13:37:16.524Z,91.40
2018-12-30T13:39:42.998Z,91.50
2018-12-30T13:42:09.238Z,91.50
2018-12-30T13:44:35.649Z,91.70
2018-12-30T13:47:02.115Z,91.60
2018-12-30T13:49:28.374Z,91.50
2018-12-30T13:51:54.746Z,91.60
2018-12-30T13:54:20.997Z,91.70
2018-12-30T13:56:47.354Z,91.70
2018-12-30T13:59:13.814Z,91.50
2018-12-30T14:01:40.346Z,91.50
2018-12-30T14:04:06.601Z,91.60
2018-12-30T14:06:32.953Z,91.60
2018-12-30T14:08:59.389Z,91.50
2018-12-30T14:11:25.746Z,91.50
2018-12-30T14:13:52.071Z,91.50
2018-12-30T14:16:18.299Z,91.50
2018-12-30T14:18:44.702Z,91.50
2018-12-30T14:21:11.103Z,91.50
2018-12-30T14:23:37.428Z,91.40
2018-12-30T14:26:03.922Z,91.30
2018-12-30T14:28:30.258Z,91.50
2018-12-30T14:30:56.547Z,91.30
2018-12-30T14:33:22.979Z,91.30
2018-12-30T14:35:49.396Z,91.10
2018-12-30T14:38:15.763Z,91.20
2018-12-30T14:40:42.149Z,91.10
2018-12-30T14:43:08.402Z,91.20
2018-12-30T14:45:34.648Z,91.20
2018-12-30T14:48:01.347Z,91.30
2018-12-30T14:50:28.024Z,91.30
2018-12-30T14:52:54.405Z,91.40
2018-12-30T14:55:20.709Z,91.50
2018-12-30T14:57:47.055Z,91.60
2018-12-30T15:00:13.422Z,91.50
2018-12-30T15:02:39.747Z,91.30
2018-12-30T15:05:06.205Z,91.40
2018-12-30T15:07:32.621Z,91.30
2018-12-30T15:09:59.043Z,91.40
2018-12-30T15:12:25.270Z,91.50
2018-12-30T15:14:51.656Z,91.50
2018-12-30T15:17:18.174Z,91.50
2018-12-30T15:19:44.381Z,91.60
2018-12-30T15:22:12.067Z,91.60
2018-12-30T15:24:38.405Z,91.70
2018-12-30T15:27:04.821Z,91.60
2018-12-30T15:29:31.219Z,91.50
2018-12-30T15:31:57.473Z,91.50
2018-12-30T15:34:23.724Z,91.50
2018-12-30T15:36:50.009Z,91.60
2018-12-30T15:39:16.548Z,91.50
2018-12-30T15:41:42.790Z,91.60
2018-12-30T15:44:09.242Z,91.70
2018-12-30T15:46:35.613Z,91.60
2018-12-30T15:49:01.982Z,91.70
2018-12-30T15:51:28.319Z,91.70
2018-12-30T15:53:54.578Z,91.70
2018-12-30T15:56:20.849Z,92.10
2018-12-30T15:58:47.276Z,91.80
2018-12-30T16:01:13.663Z,91.90
2018-12-30T16:03:40.092Z,91.90
2018-12-30T16:06:06.350Z,91.80
2018-12-30T16:08:32.734Z,91.80
2018-12-30T16:10:59.030Z,91.80
2018-12-30T16:13:25.285Z,91.90
2018-12-30T16:15:51.658Z,91.90
2018-12-30T16:18:17.970Z,91.90
2018-12-30T16:20:44.233Z,91.90
2018-12-30T16:23:10.475Z,91.90
2018-12-30T16:25:36.761Z,91.90
2018-12-30T16:28:03.050Z,91.90
2018-12-30T16:30:29.295Z,91.90
2018-12-30T16:32:55.790Z,91.90
2018-12-30T16:35:22.143Z,92.00
2018-12-30T16:37:49.416Z,91.90
2018-12-30T16:40:16.051Z,91.90
2018-12-30T16:42:42.351Z,91.90
2018-12-30T16:45:08.986Z,92.00
2018-12-30T16:47:41.731Z,92.00
2018-12-30T16:50:05.708Z,92.00
2018-12-30T16:52:32.210Z,92.00
2018-12-30T16:55:00.849Z,92.00
2018-12-30T16:57:27.302Z,92.10
2018-12-30T16:59:53.690Z,92.10
2018-12-30T17:02:20.042Z,91.80
2018-12-30T17:04:46.389Z,92.00
2018-12-30T17:07:12.806Z,92.10
2018-12-30T17:09:39.444Z,92.10
2018-12-30T17:12:05.850Z,92.00
2018-12-30T17:14:32.134Z,92.10
2018-12-30T17:16:58.413Z,92.10
2018-12-30T17:19:24.810Z,92.10
2018-12-30T17:21:51.173Z,92.20
2018-12-30T17:24:17.632Z,92.10
2018-12-30T17:26:43.940Z,92.20
2018-12-30T17:29:10.232Z,92.10
2018-12-30T17:31:36.522Z,92.10
2018-12-30T17:34:03.018Z,92.10
2018-12-30T17:36:29.308Z,92.10
2018-12-30T17:38:55.799Z,92.10
2018-12-30T17:41:22.098Z,92.10
2018-12-30T17:43:48.354Z,92.10
2018-12-30T17:46:18.320Z,92.10
2018-12-30T17:48:42.846Z,92.10
2018-12-30T17:51:09.301Z,92.10
2018-12-30T17:53:35.528Z,92.10
2018-12-30T17:56:02.151Z,92.10
2018-12-30T17:58:28.525Z,92.10
2018-12-30T18:00:54.809Z,92.10
2018-12-30T18:03:21.153Z,92.00
2018-12-30T18:05:47.390Z,92.00
2018-12-30T18:08:13.756Z,92.10
2018-12-30T18:10:40.156Z,92.10
2018-12-30T18:13:06.611Z,92.20
2018-12-30T18:15:32.897Z,92.30
2018-12-30T18:17:59.966Z,92.30
2018-12-30T18:20:26.312Z,92.30
2018-12-30T18:22:53.042Z,92.30
2018-12-30T18:25:21.075Z,92.30
2018-12-30T18:27:49.218Z,92.20
2018-12-30T18:30:15.822Z,92.20
2018-12-30T18:32:42.588Z,92.20
2018-12-30T18:35:09.438Z,92.20
2018-12-30T18:37:36.261Z,92.40
2018-12-30T18:40:04.081Z,92.40
2018-12-30T18:42:30.686Z,92.60
2018-12-30T18:44:57.240Z,92.60
2018-12-30T18:47:23.909Z,92.40
2018-12-30T18:49:50.617Z,92.40
2018-12-30T18:52:17.307Z,92.50
2018-12-30T18:54:44.074Z,92.60
2018-12-30T18:57:10.750Z,92.60
2018-12-30T18:59:37.187Z,92.60
2018-12-30T19:02:03.902Z,92.60
2018-12-30T19:04:30.417Z,92.60
2018-12-30T19:06:56.959Z,92.50
2018-12-30T19:09:23.491Z,92.60
2018-12-30T19:11:50.143Z,92.50
2018-12-30T19:14:16.686Z,92.60
2018-12-30T19:16:51.853Z,92.60
2018-12-30T19:19:18.689Z,92.60
2018-12-30T19:21:45.343Z,92.60
2018-12-30T19:24:12.355Z,92.60
2018-12-30T19:26:38.783Z,92.70
2018-12-30T19:29:05.385Z,92.90
2018-12-30T19:31:31.994Z,92.90
2018-12-30T19:33:58.559Z,93.00
2018-12-30T19:36:25.277Z,93.10
2018-12-30T19:38:53.855Z,93.10
2018-12-30T19:41:20.360Z,93.20
2018-12-30T19:43:46.814Z,93.30
2018-12-30T19:46:13.473Z,93.30
2018-12-30T19:48:39.948Z,93.40
2018-12-30T19:51:06.689Z,93.50
2018-12-30T19:53:36.498Z,93.50
2018-12-30T19:56:03.283Z,93.50
2018-12-30T19:58:29.977Z,93.50
2018-12-30T20:00:56.662Z,93.50
2018-12-30T20:03:23.585Z,93.50
2018-12-30T20:05:50.148Z,93.50
2018-12-30T20:08:36.308Z,93.50
2018-12-30T20:11:02.860Z,93.40
2018-12-30T20:13:29.297Z,93.60
2018-12-30T20:15:55.841Z,93.70
2018-12-30T20:18:22.330Z,93.70
2018-12-30T20:20:48.678Z,93.90
2018-12-30T20:23:15.098Z,94.00
2018-12-30T20:25:41.459Z,93.80
2018-12-30T20:28:07.930Z,93.80
2018-12-30T20:30:34.268Z,93.90
2018-12-30T20:33:00.532Z,93.70
2018-12-30T20:35:26.965Z,94.00
2018-12-30T20:37:53.334Z,94.00
2018-12-30T20:40:19.934Z,94.20
2018-12-30T20:42:46.297Z,94.20
2018-12-30T20:45:12.928Z,94.30
2018-12-30T20:47:39.385Z,94.30
2018-12-30T20:50:06.012Z,94.40
2018-12-30T20:52:32.434Z,94.80
2018-12-30T20:54:58.976Z,94.60
2018-12-30T20:57:27.260Z,94.70
2018-12-30T20:59:53.656Z,95.00
2018-12-30T21:02:20.134Z,94.80
2018-12-30T21:04:46.819Z,94.90
2018-12-30T21:07:13.197Z,95.10
2018-12-30T21:09:39.634Z,95.10
2018-12-30T21:12:06.136Z,95.20
2018-12-30T21:14:32.474Z,95.30
2018-12-30T21:16:58.854Z,95.20
2018-12-30T21:19:25.132Z,95.20
2018-12-30T21:21:51.516Z,95.20
2018-12-30T21:24:17.919Z,95.20
2018-12-30T21:26:45.561Z,95.30
2018-12-30T21:29:12.241Z,95.30
2018-12-30T21:31:38.627Z,95.30
2018-12-30T21:34:05.009Z,95.30
2018-12-30T21:36:31.295Z,95.30
2018-12-30T21:38:57.808Z,95.40
2018-12-30T21:41:24.312Z,95.50
2018-12-30T21:43:50.617Z,95.50
2018-12-30T21:46:17.064Z,95.80
2018-12-30T21:48:44.189Z,95.50
2018-12-30T21:51:11.104Z,95.50
2018-12-30T21:53:37.367Z,95.40
2018-12-30T21:56:03.927Z,95.40
2018-12-30T21:58:30.285Z,95.40
2018-12-30T22:00:56.753Z,95.50
2018-12-30T22:03:23.169Z,95.40
2018-12-30T22:05:49.596Z,95.50
2018-12-30T22:08:16.089Z,95.60
2018-12-30T22:10:42.408Z,95.60
2018-12-30T22:13:09.865Z,95.60
2018-12-30T22:15:36.227Z,95.70
2018-12-30T22:18:02.692Z,95.70
2018-12-30T22:20:29.303Z,95.70
2018-12-30T22:22:55.720Z,95.70
2018-12-30T22:25:24.082Z,95.70
2018-12-30T22:27:50.362Z,95.70
2018-12-30T22:30:17.143Z,95.60
2018-12-30T22:32:43.619Z,95.60
2018-12-30T22:35:11.062Z,95.70
2018-12-30T22:37:37.359Z,95.70
2018-12-30T22:40:06.153Z,95.80
2018-12-30T22:42:32.915Z,95.90
2018-12-30T22:44:59.533Z,96.10
2018-12-30T22:47:26.104Z,96.00
2018-12-30T22:49:52.782Z,96.00
2018-12-30T22:52:19.296Z,96.10
2018-12-30T22:54:45.602Z,96.10
2018-12-30T22:57:11.839Z,96.10
2018-12-30T22:59:38.120Z,96.10
2018-12-30T23:02:04.636Z,96.10
2018-12-30T23:04:30.949Z,96.10
2018-12-30T23:06:57.343Z,96.10
2018-12-30T23:09:23.766Z,96.10
2018-12-30T23:11:50.194Z,96.20
2018-12-30T23:14:16.481Z,96.30
2018-12-30T23:16:42.905Z,96.40
2018-12-30T23:19:09.269Z,96.40
2018-12-30T23:21:44.754Z,96.40
2018-12-30T23:24:21.805Z,96.40
2018-12-30T23:26:54.703Z,96.40
2018-12-30T23:29:23.623Z,96.40
2018-12-30T23:31:51.930Z,96.50
2018-12-30T23:34:24.604Z,96.50
2018-12-30T23:36:54.828Z,96.60
2018-12-30T23:39:21.652Z,96.60
2018-12-30T23:41:48.159Z,96.70
2018-12-30T23:44:14.574Z,96.70
2018-12-30T23:46:41.066Z,96.80
2018-12-30T23:49:07.562Z,96.80
2018-12-30T23:51:34.366Z,96.90
2018-12-30T23:54:03.808Z,96.90
2018-12-30T23:56:30.101Z,96.80
2018-12-30T23:58:56.473Z,96.80
